Endangered Species — WDA7693 — position and weather

sailwx.info

Track history (hours):
 
Tides and Currents Weather Stations Pressure Air Temp Water Temp Dewpoint Dewpoint Depression Visibility Wind Speed Wind Dir Waves Ship Positions

Endangered Species

Owner: Walker, Richard A, Green Cove Springs, FL. More information available from US FCC via Universal Licensing System and Coast Guard Vessel Documentation Center.

Last reported at 2018-Mar-11 16:25 UTC. Time now 2018-Jun-18 02:16 UTC.
Position N 23°31' W 075°46'.
Warning: this ship's position is months out of date.

Length 13 m.

Type: Sailing vessel. MMSI: 338034966.

Date/timePositionNaut miles runAvg speedWind from/ knotsBaromVisibWave heightAir tempDewpointWater temp
2018-Mar-11 16:25N 23°31' W 075°46'2 4.6
2018-Mar-11 16:00N 23°30' W 075°44'4 7.6
2018-Mar-11 15:30N 23°29' W 075°40'3 5.5
2018-Mar-11 15:01N 23°31' W 075°42'3 6.5
2018-Mar-11 14:30N 23°32' W 075°46'2 3.9
2018-Mar-11 13:59N 23°34' W 075°47'2 1.0
2018-Mar-11 11:57N 23°32' W 075°46'0 0.0
2018-Mar-11 11:30N 23°32' W 075°46'0 0.0
2018-Mar-11 11:00N 23°32' W 075°46'0 0.0
2018-Mar-10 13:51N 23°32' W 075°46'0 0.0
2018-Mar-09 19:18N 23°32' W 075°46'0 0.0
2018-Mar-09 19:00N 23°32' W 075°46'1 2.5
2018-Mar-09 18:30N 23°31' W 075°46'1 2.2
2018-Mar-09 18:00N 23°32' W 075°46'2 3.8
2018-Mar-09 17:30N 23°30' W 075°45'2 3.9
2018-Mar-09 17:00N 23°32' W 075°46'1 1.0
2018-Mar-09 16:30N 23°31' W 075°46'1 1.5
2018-Mar-09 16:00N 23°31' W 075°46'0 0.6
2018-Mar-09 15:30N 23°31' W 075°46'1 1.7
2018-Mar-09 15:00N 23°31' W 075°45'2 0.1
2018-Mar-08 21:40N 23°32' W 075°46'0 0.0
2018-Mar-08 21:28N 23°32' W 075°46'0 0.0
2018-Mar-08 20:58N 23°32' W 075°46'0 0.0
2018-Mar-08 20:25N 23°32' W 075°46'  
Track history (hours):
 
Tides and Currents Weather Stations Pressure Air Temp Water Temp Dewpoint Dewpoint Depression Visibility Wind Speed Wind Dir Waves Ship Positions

Endangered Species

Owner: Walker, Richard A, Green Cove Springs, FL. More information available from US FCC via Universal Licensing System and Coast Guard Vessel Documentation Center.

Last reported at 2018-Mar-11 16:25 UTC. Time now 2018-Jun-18 02:16 UTC.
Position N 23°31' W 075°46'.
Warning: this ship's position is months out of date.

Length 13 m.

Type: Sailing vessel. MMSI: 338034966.

Date/timePositionNaut miles runAvg speedWind from/ knotsBaromVisibWave heightAir tempDewpointWater temp
2018-Mar-11 16:25N 23°31' W 075°46'2 4.6
2018-Mar-11 16:00N 23°30' W 075°44'4 7.6
2018-Mar-11 15:30N 23°29' W 075°40'3 5.5
2018-Mar-11 15:01N 23°31' W 075°42'3 6.5
2018-Mar-11 14:30N 23°32' W 075°46'2 3.9
2018-Mar-11 13:59N 23°34' W 075°47'2 1.0
2018-Mar-11 11:57N 23°32' W 075°46'0 0.0
2018-Mar-11 11:30N 23°32' W 075°46'0 0.0
2018-Mar-11 11:00N 23°32' W 075°46'0 0.0
2018-Mar-10 13:51N 23°32' W 075°46'0 0.0
2018-Mar-09 19:18N 23°32' W 075°46'0 0.0
2018-Mar-09 19:00N 23°32' W 075°46'1 2.5
2018-Mar-09 18:30N 23°31' W 075°46'1 2.2
2018-Mar-09 18:00N 23°32' W 075°46'2 3.8
2018-Mar-09 17:30N 23°30' W 075°45'2 3.9
2018-Mar-09 17:00N 23°32' W 075°46'1 1.0
2018-Mar-09 16:30N 23°31' W 075°46'1 1.5
2018-Mar-09 16:00N 23°31' W 075°46'0 0.6
2018-Mar-09 15:30N 23°31' W 075°46'1 1.7
2018-Mar-09 15:00N 23°31' W 075°45'2 0.1
2018-Mar-08 21:40N 23°32' W 075°46'0 0.0
2018-Mar-08 21:28N 23°32' W 075°46'0 0.0
2018-Mar-08 20:58N 23°32' W 075°46'0 0.0
2018-Mar-08 20:25N 23°32' W 075°46'  

Dump ship's entire track history